Terminal Aerodrome Forecast
Issued by NWS Jacksonville, FL

Home | Current Version | Previous Version | Text Only | Print | Product List | Glossary On
Versions: 1 2 3 4 5 6 7 8 9 10 11 12 13 14 15 16 17
964
FTUS42 KJAX 241721
TAFGNV
TAF
KGNV 241721Z 2418/2518 34005KT P6SM BKN040
     FM242100 06007KT P6SM VCTS BKN050CB
     FM250000 VRB03KT P6SM SCT050
     FM250800 00000KT 4SM BR FEW250
     FM251100 00000KT 1SM BR FEW002 FEW250
     FM251330 01003KT P6SM SCT030=

USA.gov is the U.S. government's official web portal to all federal, state and local government web resources and services.